Terminal Aerodrome Forecast
Issued by NWS Cleveland, OH

Home | Current Version | Previous Version | Graphics & Text | Print | Product List | Glossary On
Versions: 1 2 3 4 5 6 7 8 9 10 11 12 13 14 15 16 17 18 19
235
FTUS41 KCLE 041121
TAFYNG
TAF
KYNG 041121Z 0412/0512 VRB06KT P6SM SCT035 BKN120
     FM050200 16008KT 6SM -RASN BR BKN025
     FM050400 20008KT 3SM -SN BR OVC020
     FM050700 26008KT P6SM VCSH BKN025
     FM051000 26008KT P6SM BKN025=

USA.gov is the U.S. government's official web portal to all federal, state and local government web resources and services.